Time;durP1;ratioP1;P1;durP2;ratioP2;P2;SDS_P1;SDS_P2;PMS_P1;PMS_P2;Temp;Humidity;BMP_temperature;BMP_pressure;BME280_temperature;BME280_humidity;BME280_pressure;Samples;Min_cycle;Max_cycle;Signal;HPM_P1;HPM_P2
2023/11/17 00:00:18;;;;;;;10.23;4.40;;;8.90;99.90;;;;;;4181099;28;20179;-89
2023/11/17 00:02:18;;;;;;;8.95;4.72;;;9.00;99.90;;;;;;4197689;28;20163;-89
2023/11/17 00:04:19;;;;;;;16.52;5.13;;;8.90;99.90;;;;;;4181441;28;20191;-89
2023/11/17 00:06:20;;;;;;;13.43;5.50;;;8.90;99.90;;;;;;4181257;28;20211;-88
2023/11/17 00:08:21;;;;;;;10.07;5.10;;;8.80;99.90;;;;;;4197464;28;20298;-89
2023/11/17 00:10:22;;;;;;;12.23;4.38;;;8.80;99.90;;;;;;4181185;28;20179;-89
2023/11/17 00:12:22;;;;;;;12.35;5.28;;;8.80;99.90;;;;;;4181177;28;20179;-88
2023/11/17 00:14:23;;;;;;;14.95;4.78;;;8.80;99.90;;;;;;4180900;28;20171;-89
2023/11/17 00:16:25;;;;;;;12.05;5.78;;;8.80;99.90;;;;;;4197507;28;20171;-88
2023/11/17 00:18:25;;;;;;;10.77;5.07;;;8.70;99.90;;;;;;4180899;28;20191;-89
2023/11/17 00:20:26;;;;;;;8.38;4.70;;;8.80;99.90;;;;;;4197637;28;20280;-89
2023/11/17 00:22:27;;;;;;;13.48;4.70;;;8.80;99.90;;;;;;4181140;28;20700;-88
2023/11/17 00:24:28;;;;;;;30.27;5.90;;;8.80;99.90;;;;;;4197812;28;20177;-88
2023/11/17 00:26:29;;;;;;;17.80;5.50;;;8.60;99.90;;;;;;4180867;28;20250;-89
2023/11/17 00:28:39;;;;;;;14.23;4.90;;;8.60;99.90;;;;;;4181192;28;20206;-89
2023/11/17 00:30:40;;;;;;;12.63;4.82;;;8.70;99.90;;;;;;4180917;28;20167;-88
2023/11/17 00:32:40;;;;;;;11.88;4.93;;;8.70;99.90;;;;;;4180755;28;20202;-89
2023/11/17 00:34:41;;;;;;;14.07;5.40;;;8.70;99.90;;;;;;4180987;28;20600;-89
2023/11/17 00:36:44;;;;;;;11.55;5.72;;;8.60;99.90;;;;;;4181075;28;20172;-89
2023/11/17 00:38:45;;;;;;;17.50;5.70;;;8.60;99.90;;;;;;4197315;28;20606;-89
2023/11/17 00:40:47;;;;;;;11.40;5.68;;;8.60;99.90;;;;;;4197448;28;20167;-89
2023/11/17 00:42:49;;;;;;;11.98;5.80;;;8.60;99.90;;;;;;4197532;28;20178;-89
2023/11/17 00:44:49;;;;;;;13.55;5.28;;;8.50;99.90;;;;;;4180806;28;20180;-88
2023/11/17 00:46:50;;;;;;;15.10;4.47;;;8.40;99.90;;;;;;4197635;28;20708;-89
2023/11/17 00:48:51;;;;;;;10.63;4.82;;;8.40;99.90;;;;;;4180447;28;20215;-88
2023/11/17 00:50:52;;;;;;;13.18;5.07;;;8.30;99.90;;;;;;4180587;28;20699;-89
2023/11/17 00:52:53;;;;;;;12.27;4.88;;;8.30;99.90;;;;;;4180508;28;20266;-88
2023/11/17 00:54:57;;;;;;;22.10;5.72;;;8.30;99.90;;;;;;4180559;28;20529;-89
2023/11/17 00:56:57;;;;;;;13.63;6.10;;;8.30;99.90;;;;;;4197129;28;20174;-88
2023/11/17 00:59:03;;;;;;;20.08;5.90;;;8.30;99.90;;;;;;4180563;28;20667;-88
2023/11/17 01:01:04;;;;;;;12.25;5.07;;;8.30;99.90;;;;;;4180295;28;20175;-88
2023/11/17 01:03:04;;;;;;;14.38;6.07;;;8.20;99.90;;;;;;4180523;28;20167;-89
2023/11/17 01:05:09;;;;;;;14.52;5.32;;;8.30;99.90;;;;;;4180710;28;20171;-89
2023/11/17 01:07:10;;;;;;;14.45;6.63;;;8.40;99.90;;;;;;4180685;28;20208;-88
2023/11/17 01:09:10;;;;;;;11.35;5.55;;;8.40;99.90;;;;;;4180786;28;20194;-89
2023/11/17 01:11:12;;;;;;;11.40;5.22;;;8.50;99.90;;;;;;4197276;28;20172;-88
2023/11/17 01:13:14;;;;;;;16.92;5.43;;;8.50;99.90;;;;;;4197228;28;20170;-89
2023/11/17 01:15:14;;;;;;;11.13;5.07;;;8.40;99.90;;;;;;4183391;28;20254;-89
2023/11/17 01:17:15;;;;;;;10.52;4.47;;;8.40;99.90;;;;;;4200348;28;20189;-89
2023/11/17 01:19:16;;;;;;;13.38;5.15;;;8.40;99.90;;;;;;4183866;28;20274;-89
2023/11/17 01:21:17;;;;;;;17.83;5.75;;;8.40;99.90;;;;;;4183861;28;20624;-89
2023/11/17 01:23:18;;;;;;;17.38;6.85;;;8.40;99.90;;;;;;4183314;28;20180;-89
2023/11/17 01:25:19;;;;;;;14.55;7.07;;;8.50;99.90;;;;;;4183561;28;20175;-88
2023/11/17 01:27:20;;;;;;;25.48;6.78;;;8.60;99.90;;;;;;4183508;28;20253;-89
2023/11/17 01:29:21;;;;;;;15.07;5.43;;;8.60;99.90;;;;;;4183218;28;20259;-88
2023/11/17 01:31:21;;;;;;;18.98;7.68;;;8.70;99.90;;;;;;4183498;28;20178;-89
2023/11/17 01:33:23;;;;;;;18.88;6.50;;;8.60;99.90;;;;;;4183501;28;20275;-88
2023/11/17 01:35:24;;;;;;;17.48;7.45;;;8.60;99.90;;;;;;4183250;28;20167;-89
2023/11/17 01:37:25;;;;;;;17.33;6.75;;;8.70;99.90;;;;;;4200006;28;20167;-88
2023/11/17 01:39:26;;;;;;;22.92;7.25;;;8.80;99.90;;;;;;4199725;28;20298;-88
2023/11/17 01:41:27;;;;;;;14.27;6.05;;;8.70;99.90;;;;;;4183170;28;20171;-89
2023/11/17 01:43:29;;;;;;;14.90;5.90;;;8.70;99.90;;;;;;4183111;28;20650;-88
2023/11/17 01:45:30;;;;;;;14.73;6.93;;;8.50;99.90;;;;;;4199823;28;20258;-88
2023/11/17 01:47:30;;;;;;;16.33;6.85;;;8.50;99.90;;;;;;4183024;28;20210;-89
2023/11/17 01:49:32;;;;;;;13.77;6.22;;;8.50;99.90;;;;;;4182985;28;20196;-89
2023/11/17 01:51:35;;;;;;;20.73;7.53;;;8.60;99.90;;;;;;4183273;28;20199;-88
2023/11/17 01:53:36;;;;;;;15.40;7.25;;;8.60;99.90;;;;;;4182851;28;20618;-89
2023/11/17 01:55:37;;;;;;;19.40;7.13;;;8.60;99.90;;;;;;4199666;28;20178;-89
2023/11/17 01:57:38;;;;;;;13.27;6.00;;;8.60;99.90;;;;;;4199435;28;20241;-89
2023/11/17 01:59:39;;;;;;;24.05;6.13;;;8.60;99.90;;;;;;4183029;28;20338;-89
2023/11/17 02:01:40;;;;;;;19.83;6.75;;;8.60;99.90;;;;;;4183040;28;20172;-89
2023/11/17 02:03:40;;;;;;;13.70;6.70;;;8.60;99.90;;;;;;4182694;28;20167;-89
2023/11/17 02:05:41;;;;;;;15.35;7.18;;;8.70;99.90;;;;;;4215917;28;20174;-89
2023/11/17 02:08:02;;;;;;;10.52;6.00;;;8.70;99.90;;;;;;4182919;28;20304;-89
2023/11/17 02:10:14;;;;;;;14.27;6.28;;;8.70;99.90;;;;;;4199449;28;20198;-89
2023/11/17 02:12:34;;;;;;;13.75;5.78;;;8.80;99.90;;;;;;4199461;28;20174;-89
2023/11/17 02:14:39;;;;;;;17.80;6.22;;;8.80;99.90;;;;;;4182794;28;20168;-89
2023/11/17 02:16:42;;;;;;;12.50;5.93;;;8.80;99.90;;;;;;4182734;28;20206;-89
2023/11/17 02:18:49;;;;;;;13.60;5.78;;;9.00;99.90;;;;;;4199316;28;20285;-90
2023/11/17 02:20:53;;;;;;;15.85;6.18;;;9.00;99.90;;;;;;4216138;28;20198;-89
2023/11/17 02:22:59;;;;;;;15.73;6.13;;;9.00;99.90;;;;;;4199253;28;20187;-90
2023/11/17 02:25:15;;;;;;;13.73;4.78;;;8.90;99.90;;;;;;4199312;28;20166;-89
2023/11/17 02:27:25;;;;;;;13.32;5.47;;;9.00;99.90;;;;;;4182480;28;20714;-89
2023/11/17 02:29:37;;;;;;;10.85;5.28;;;9.00;99.90;;;;;;4182379;28;20196;-89
2023/11/17 02:31:39;;;;;;;14.65;5.45;;;9.00;99.90;;;;;;4182512;28;20175;-89
2023/11/17 02:33:48;;;;;;;11.63;5.28;;;8.90;99.90;;;;;;4199186;28;20581;-90
2023/11/17 02:35:50;;;;;;;8.32;4.90;;;8.90;99.90;;;;;;4199113;28;20232;-90
2023/11/17 02:37:51;;;;;;;8.20;4.35;;;8.80;99.90;;;;;;4199025;28;20224;-89
2023/11/17 02:39:55;;;;;;;9.85;5.28;;;8.80;99.90;;;;;;4198570;28;20170;-90
2023/11/17 02:41:59;;;;;;;12.95;5.10;;;8.70;99.90;;;;;;4198602;28;20182;-90
2023/11/17 02:44:02;;;;;;;12.27;5.13;;;8.80;99.90;;;;;;4182119;28;20639;-89
2023/11/17 02:46:03;;;;;;;7.72;3.50;;;8.90;99.90;;;;;;4182288;28;20171;-89
2023/11/17 02:48:04;;;;;;;10.38;4.60;;;8.80;99.90;;;;;;4198413;28;20274;-89
2023/11/17 02:50:10;;;;;;;10.43;4.88;;;8.60;99.90;;;;;;4199525;28;20242;-89
2023/11/17 02:52:23;;;;;;;7.75;3.67;;;8.60;99.90;;;;;;4198643;28;20741;-89
2023/11/17 02:54:27;;;;;;;9.90;4.90;;;8.60;99.90;;;;;;4198458;28;20167;-90
2023/11/17 02:56:29;;;;;;;12.95;5.00;;;8.70;99.90;;;;;;4198456;28;20647;-90
2023/11/17 02:58:32;;;;;;;12.05;5.05;;;8.70;99.90;;;;;;4181848;28;20191;-89
2023/11/17 03:00:34;;;;;;;11.18;5.05;;;8.70;99.90;;;;;;4199611;28;20171;-89
2023/11/17 03:02:39;;;;;;;11.50;5.50;;;8.50;99.90;;;;;;4198425;28;20212;-89
2023/11/17 03:04:42;;;;;;;9.40;3.58;;;8.40;99.90;;;;;;4198391;28;20536;-89
2023/11/17 03:06:48;;;;;;;11.43;4.63;;;8.30;99.90;;;;;;4199234;28;20906;-89
2023/11/17 03:08:50;;;;;;;13.68;6.07;;;8.40;99.90;;;;;;4181713;28;20277;-88
2023/11/17 03:10:51;;;;;;;9.57;5.07;;;8.30;99.90;;;;;;4199393;28;20515;-89
2023/11/17 03:12:55;;;;;;;10.73;4.55;;;8.20;99.90;;;;;;4181852;28;20176;-89
2023/11/17 03:14:55;;;;;;;9.35;4.85;;;8.30;99.90;;;;;;4181645;28;20171;-89
2023/11/17 03:16:59;;;;;;;8.95;5.20;;;8.30;99.90;;;;;;4181658;28;20580;-89
2023/11/17 03:18:59;;;;;;;8.77;4.05;;;8.30;99.90;;;;;;4181762;28;20191;-89
2023/11/17 03:21:01;;;;;;;9.07;4.53;;;8.30;99.90;;;;;;4182086;28;20241;-88
2023/11/17 03:23:02;;;;;;;9.05;4.03;;;8.40;99.90;;;;;;4181721;28;20262;-88
2023/11/17 03:25:03;;;;;;;11.00;4.95;;;8.30;99.90;;;;;;4181737;28;20179;-88
2023/11/17 03:27:04;;;;;;;7.53;3.85;;;8.30;99.90;;;;;;4198009;28;20622;-89
2023/11/17 03:29:05;;;;;;;10.85;4.75;;;8.30;99.90;;;;;;4197862;28;20190;-89
2023/11/17 03:31:13;;;;;;;10.18;4.97;;;8.30;99.90;;;;;;4181637;28;20172;-89
2023/11/17 03:33:14;;;;;;;9.48;3.95;;;8.30;99.90;;;;;;4181568;28;20178;-88
2023/11/17 03:35:15;;;;;;;9.70;5.10;;;8.20;99.90;;;;;;4181533;28;20171;-89
2023/11/17 03:37:18;;;;;;;8.45;3.60;;;8.20;99.90;;;;;;4197572;28;20611;-88
2023/11/17 03:39:19;;;;;;;9.45;4.45;;;8.20;99.90;;;;;;4181240;28;20202;-88
2023/11/17 03:41:22;;;;;;;8.75;3.65;;;8.20;99.90;;;;;;4197885;28;20194;-89
2023/11/17 03:43:23;;;;;;;8.10;3.88;;;8.30;99.90;;;;;;4197944;28;20179;-88
2023/11/17 03:45:24;;;;;;;4.03;2.15;;;8.30;99.90;;;;;;4181406;28;20204;-88
2023/11/17 03:47:25;;;;;;;6.75;3.60;;;8.20;99.90;;;;;;4198824;28;20260;-89
2023/11/17 03:49:26;;;;;;;7.47;4.40;;;8.20;99.90;;;;;;4181496;28;20201;-88
2023/11/17 03:51:27;;;;;;;5.18;3.50;;;8.20;99.90;;;;;;4181416;28;20172;-88
2023/11/17 03:53:28;;;;;;;13.32;4.35;;;8.20;99.90;;;;;;4197835;28;20183;-90
2023/11/17 03:55:28;;;;;;;9.13;4.97;;;8.20;99.90;;;;;;4181314;28;20207;-89
2023/11/17 03:57:29;;;;;;;9.23;3.40;;;8.30;99.90;;;;;;4181344;28;20167;-89
2023/11/17 03:59:30;;;;;;;8.18;2.95;;;8.40;99.90;;;;;;4181120;28;20191;-89
2023/11/17 04:01:33;;;;;;;9.00;4.30;;;8.60;99.90;;;;;;4197832;28;20174;-89
2023/11/17 04:03:34;;;;;;;7.13;4.00;;;8.60;99.90;;;;;;4197927;28;20665;-88
2023/11/17 04:05:35;;;;;;;8.90;3.03;;;8.70;99.90;;;;;;4180659;28;20172;-88
2023/11/17 04:07:35;;;;;;;9.30;4.38;;;8.80;99.90;;;;;;4197520;28;20205;-89
2023/11/17 04:09:36;;;;;;;8.88;3.55;;;8.70;99.90;;;;;;4180713;28;20698;-88
2023/11/17 04:11:39;;;;;;;8.13;3.70;;;8.70;99.90;;;;;;4181099;28;20175;-88
2023/11/17 04:13:42;;;;;;;7.28;3.25;;;8.70;99.90;;;;;;4180983;28;20641;-88
2023/11/17 04:15:43;;;;;;;6.07;2.70;;;8.70;99.90;;;;;;4181122;28;20163;-88
2023/11/17 04:17:45;;;;;;;8.38;3.78;;;8.70;99.90;;;;;;4197535;28;20544;-88
2023/11/17 04:19:46;;;;;;;9.55;4.40;;;8.70;99.90;;;;;;4197764;28;20169;-88
2023/11/17 04:21:47;;;;;;;9.57;3.78;;;8.90;99.90;;;;;;4180860;28;20690;-89
2023/11/17 04:23:47;;;;;;;8.48;3.65;;;8.70;99.90;;;;;;4180842;28;20396;-89
2023/11/17 04:25:50;;;;;;;14.32;3.85;;;8.70;99.90;;;;;;4197591;28;20186;-89
2023/11/17 04:27:51;;;;;;;8.48;2.97;;;8.80;99.90;;;;;;4197312;28;20210;-87
2023/11/17 04:29:52;;;;;;;4.93;2.75;;;8.70;99.90;;;;;;4197351;28;20209;-88
2023/11/17 04:31:56;;;;;;;6.80;3.65;;;8.80;99.90;;;;;;4180924;28;20203;-89
2023/11/17 04:33:56;;;;;;;7.88;3.22;;;8.80;99.90;;;;;;4180854;28;20178;-88
2023/11/17 04:35:58;;;;;;;6.60;3.03;;;9.00;99.90;;;;;;4180891;28;20636;-88
2023/11/17 04:37:59;;;;;;;5.10;2.92;;;9.10;99.90;;;;;;4180870;28;20211;-88
2023/11/17 04:40:01;;;;;;;6.15;3.03;;;8.90;99.90;;;;;;4180746;28;20160;-88
2023/11/17 04:42:03;;;;;;;4.20;2.72;;;8.90;99.90;;;;;;4180736;28;20293;-88
2023/11/17 04:44:04;;;;;;;9.88;2.88;;;8.90;99.90;;;;;;4181278;28;20167;-88
2023/11/17 04:46:06;;;;;;;5.03;2.80;;;8.90;99.90;;;;;;4180988;28;20183;-88
2023/11/17 04:48:08;;;;;;;6.00;2.72;;;8.90;99.90;;;;;;4180797;28;20254;-88
2023/11/17 04:50:10;;;;;;;5.38;2.60;;;9.00;99.90;;;;;;4200295;28;20264;-88
2023/11/17 04:52:10;;;;;;;7.80;2.90;;;9.00;99.90;;;;;;4184130;28;20180;-89
2023/11/17 04:54:14;;;;;;;7.05;2.88;;;9.00;99.90;;;;;;4183892;28;20175;-88
2023/11/17 04:56:14;;;;;;;5.03;2.55;;;9.00;99.90;;;;;;4200156;28;20177;-88
2023/11/17 04:58:15;;;;;;;5.40;2.55;;;8.90;99.90;;;;;;4183717;28;20226;-88
2023/11/17 05:00:16;;;;;;;5.97;2.65;;;8.90;99.90;;;;;;4200481;28;20171;-88
2023/11/17 05:02:17;;;;;;;6.20;3.15;;;9.00;99.90;;;;;;4200780;28;20217;-89
2023/11/17 05:04:18;;;;;;;3.35;2.13;;;9.00;99.90;;;;;;4183623;28;20652;-88
2023/11/17 05:06:23;;;;;;;5.22;2.17;;;9.00;99.90;;;;;;4183585;28;20190;-89
2023/11/17 05:08:23;;;;;;;20.77;3.00;;;8.90;99.90;;;;;;4183689;28;20184;-88
2023/11/17 05:10:26;;;;;;;7.72;2.83;;;8.90;99.90;;;;;;4200448;28;20202;-88
2023/11/17 05:12:26;;;;;;;6.35;3.15;;;9.10;99.90;;;;;;4183875;28;20195;-88
2023/11/17 05:14:27;;;;;;;5.88;3.13;;;9.00;99.90;;;;;;4183529;28;20190;-87
2023/11/17 05:16:29;;;;;;;7.53;2.63;;;9.00;99.90;;;;;;4200162;28;20167;-89
2023/11/17 05:18:30;;;;;;;5.75;3.13;;;9.00;99.90;;;;;;4200252;28;20199;-88
2023/11/17 05:20:31;;;;;;;8.73;3.22;;;8.90;99.90;;;;;;4183266;28;20516;-88
2023/11/17 05:22:31;;;;;;;5.68;3.20;;;8.90;99.90;;;;;;4183586;28;20168;-88
2023/11/17 05:24:33;;;;;;;6.38;3.13;;;9.00;99.90;;;;;;4183527;28;20172;-89
2023/11/17 05:26:34;;;;;;;7.97;3.10;;;9.00;99.90;;;;;;4199957;28;20296;-89
2023/11/17 05:28:35;;;;;;;8.05;3.28;;;9.10;99.90;;;;;;4183241;28;20608;-87
2023/11/17 05:30:39;;;;;;;5.88;3.33;;;9.10;99.90;;;;;;4183282;28;20237;-89
2023/11/17 05:32:40;;;;;;;6.25;3.80;;;9.00;99.90;;;;;;4183417;28;20167;-88
2023/11/17 05:34:41;;;;;;;8.70;3.63;;;9.00;99.90;;;;;;4183302;28;20179;-88
2023/11/17 05:36:43;;;;;;;4.70;3.00;;;8.90;99.90;;;;;;4199817;28;20163;-87
2023/11/17 05:38:43;;;;;;;7.90;4.20;;;8.90;99.90;;;;;;4183148;28;20192;-88
2023/11/17 05:40:44;;;;;;;14.82;3.35;;;9.00;99.90;;;;;;4200017;28;20212;-89
2023/11/17 05:42:45;;;;;;;9.45;3.53;;;9.10;99.90;;;;;;4183195;28;20176;-89
2023/11/17 05:44:46;;;;;;;5.53;3.22;;;9.10;99.90;;;;;;4183021;28;20172;-88
2023/11/17 05:46:46;;;;;;;4.65;2.80;;;9.00;99.90;;;;;;4183224;28;20720;-88
2023/11/17 05:48:48;;;;;;;6.93;3.60;;;9.10;99.90;;;;;;4183222;28;20191;-89
2023/11/17 05:50:49;;;;;;;5.57;2.90;;;9.00;99.90;;;;;;4183220;28;20266;-88
2023/11/17 05:52:50;;;;;;;8.13;3.10;;;9.00;99.90;;;;;;4183099;28;20166;-88
2023/11/17 05:54:51;;;;;;;9.40;3.35;;;9.20;99.90;;;;;;4183012;28;20200;-88
2023/11/17 05:56:52;;;;;;;6.93;3.20;;;8.90;99.90;;;;;;4183047;28;20172;-88
2023/11/17 05:58:54;;;;;;;4.03;2.53;;;9.10;99.90;;;;;;4182888;28;20210;-88
2023/11/17 06:00:54;;;;;;;7.55;2.88;;;9.00;99.90;;;;;;4199392;28;20178;-87
2023/11/17 06:02:55;;;;;;;7.40;2.42;;;9.00;99.90;;;;;;4199483;28;20622;-88
2023/11/17 06:04:56;;;;;;;6.10;2.85;;;9.00;99.90;;;;;;4182727;28;20258;-87
2023/11/17 06:06:57;;;;;;;4.97;2.55;;;9.00;99.90;;;;;;4182762;28;20242;-87
2023/11/17 06:08:57;;;;;;;5.22;2.65;;;9.20;99.90;;;;;;4182643;28;20583;-87
2023/11/17 06:10:58;;;;;;;7.60;4.25;;;9.10;99.90;;;;;;4182913;28;20184;-87
2023/11/17 06:12:59;;;;;;;8.80;3.55;;;9.10;99.90;;;;;;4182761;28;20254;-88
2023/11/17 06:15:01;;;;;;;6.32;3.35;;;8.90;99.90;;;;;;4199458;28;20181;-88
2023/11/17 06:17:08;;;;;;;5.32;2.40;;;8.70;99.90;;;;;;4182654;28;20171;-87
2023/11/17 06:19:12;;;;;;;6.97;3.50;;;8.70;99.90;;;;;;4182908;28;20195;-88
2023/11/17 06:21:12;;;;;;;4.97;2.55;;;8.90;99.90;;;;;;4182618;28;20172;-89
2023/11/17 06:23:13;;;;;;;7.50;3.53;;;9.00;99.90;;;;;;4182487;28;20668;-88
2023/11/17 06:25:14;;;;;;;6.38;3.42;;;8.90;99.90;;;;;;4182665;28;20164;-88
2023/11/17 06:27:15;;;;;;;6.57;3.38;;;8.70;99.90;;;;;;4182246;28;20305;-88
2023/11/17 06:29:18;;;;;;;5.22;3.10;;;8.60;99.90;;;;;;4182339;28;20194;-88
2023/11/17 06:31:19;;;;;;;6.57;3.55;;;8.60;99.90;;;;;;4199042;28;20175;-88
2023/11/17 06:33:20;;;;;;;7.43;3.75;;;8.50;99.90;;;;;;4182480;28;20623;-87
2023/11/17 06:35:21;;;;;;;6.18;3.35;;;8.20;99.90;;;;;;4182271;28;20262;-88
2023/11/17 06:37:21;;;;;;;6.72;3.28;;;8.00;99.90;;;;;;4198917;28;20181;-88
2023/11/17 06:39:23;;;;;;;10.00;6.28;;;8.00;99.90;;;;;;4198608;28;20320;-88
2023/11/17 06:41:24;;;;;;;15.02;7.40;;;7.90;99.90;;;;;;4199006;28;20171;-88
2023/11/17 06:43:25;;;;;;;11.45;6.53;;;7.80;99.90;;;;;;4182320;28;20168;-88
2023/11/17 06:45:25;;;;;;;17.17;9.07;;;7.80;99.90;;;;;;4198980;28;20167;-87
2023/11/17 06:47:26;;;;;;;14.70;6.25;;;7.60;99.90;;;;;;4198707;28;20303;-88
2023/11/17 06:49:27;;;;;;;29.92;13.10;;;7.60;99.90;;;;;;4198581;28;20771;-88
2023/11/17 06:51:27;;;;;;;8.85;4.32;;;7.50;99.90;;;;;;4198626;28;20236;-88
2023/11/17 06:53:29;;;;;;;9.20;3.63;;;7.50;99.90;;;;;;4181922;28;20159;-88
2023/11/17 06:55:29;;;;;;;8.13;3.85;;;7.60;99.90;;;;;;4198732;28;20589;-88
2023/11/17 06:57:32;;;;;;;11.18;4.93;;;7.80;99.90;;;;;;4181936;28;20208;-88
2023/11/17 06:59:32;;;;;;;15.52;6.15;;;7.80;99.90;;;;;;4181824;28;20193;-88
2023/11/17 07:01:35;;;;;;;18.15;7.80;;;7.70;99.90;;;;;;4181723;28;20164;-88
2023/11/17 07:03:38;;;;;;;8.00;3.80;;;7.70;99.90;;;;;;4181914;28;20199;-88
2023/11/17 07:05:41;;;;;;;74.95;31.95;;;7.70;99.90;;;;;;4181692;28;20214;-88
2023/11/17 07:07:41;;;;;;;49.85;20.70;;;7.70;99.90;;;;;;4181786;28;20219;-88
2023/11/17 07:09:42;;;;;;;24.08;10.48;;;7.60;99.90;;;;;;4198322;28;20187;-88
2023/11/17 07:11:44;;;;;;;12.18;5.85;;;7.70;99.90;;;;;;4181363;28;20708;-88
2023/11/17 07:13:45;;;;;;;8.20;4.07;;;7.60;99.90;;;;;;4182181;28;20651;-88
2023/11/17 07:15:48;;;;;;;10.60;5.15;;;7.70;99.90;;;;;;4181743;28;20226;-89
2023/11/17 07:17:48;;;;;;;13.25;5.30;;;7.90;99.90;;;;;;4198240;28;20174;-90
2023/11/17 07:19:49;;;;;;;15.50;7.78;;;7.90;99.90;;;;;;4181957;28;20202;-87
2023/11/17 07:21:50;;;;;;;12.90;6.10;;;8.00;99.90;;;;;;4181497;28;20766;-87
2023/11/17 07:23:51;;;;;;;13.95;6.25;;;7.90;99.90;;;;;;4181743;28;20175;-87
2023/11/17 07:25:52;;;;;;;14.98;7.70;;;7.90;99.90;;;;;;4181333;28;20701;-87
2023/11/17 07:27:55;;;;;;;16.13;6.50;;;7.90;99.90;;;;;;4181627;28;20223;-87
2023/11/17 07:29:57;;;;;;;15.90;6.45;;;7.80;99.90;;;;;;4181705;28;20167;-88
2023/11/17 07:31:57;;;;;;;14.98;6.47;;;7.80;99.90;;;;;;4181485;28;20199;-87
2023/11/17 07:33:58;;;;;;;8.05;4.13;;;7.90;99.90;;;;;;4198177;28;20241;-93
2023/11/17 07:35:59;;;;;;;13.70;7.20;;;7.90;99.90;;;;;;4181433;28;20237;-88
2023/11/17 07:38:02;;;;;;;17.50;6.97;;;8.00;99.90;;;;;;4181219;28;20242;-87
2023/11/17 07:40:06;;;;;;;17.38;6.70;;;8.00;99.90;;;;;;4181503;28;20194;-87
2023/11/17 07:42:08;;;;;;;23.67;8.73;;;8.10;99.90;;;;;;4181396;28;20167;-87
2023/11/17 07:44:09;;;;;;;19.42;7.68;;;8.20;99.90;;;;;;4181241;28;20693;-87
2023/11/17 07:46:11;;;;;;;9.20;5.38;;;8.30;99.90;;;;;;4181275;28;20230;-88
2023/11/17 07:48:11;;;;;;;21.25;9.48;;;8.50;99.90;;;;;;4181162;28;20622;-87
2023/11/17 07:50:15;;;;;;;25.88;9.80;;;8.60;99.90;;;;;;4181477;28;20171;-88
2023/11/17 07:52:16;;;;;;;20.05;7.93;;;8.50;99.90;;;;;;4181413;28;20182;-87
2023/11/17 07:54:17;;;;;;;12.85;6.35;;;8.60;99.90;;;;;;4181407;28;20662;-88
2023/11/17 07:56:18;;;;;;;11.52;5.88;;;8.70;99.90;;;;;;4197906;28;20170;-87
2023/11/17 07:58:20;;;;;;;10.77;4.55;;;8.80;99.90;;;;;;4181081;28;20211;-88
2023/11/17 08:00:27;;;;;;;10.48;4.40;;;8.80;99.90;;;;;;4181295;28;20182;-88
2023/11/17 08:02:28;;;;;;;10.85;5.10;;;8.80;99.90;;;;;;4181171;28;20666;-88
2023/11/17 08:04:29;;;;;;;15.88;8.20;;;8.80;99.90;;;;;;4181142;28;20180;-87
2023/11/17 08:06:30;;;;;;;17.75;5.80;;;8.60;99.90;;;;;;4197398;28;20182;-87
2023/11/17 08:08:32;;;;;;;17.30;5.88;;;8.60;99.90;;;;;;4197671;28;20567;-89
2023/11/17 08:10:33;;;;;;;10.43;4.32;;;8.70;99.90;;;;;;4181104;28;20212;-87
2023/11/17 08:12:34;;;;;;;9.10;4.78;;;8.80;99.90;;;;;;4181018;28;20179;-88
2023/11/17 08:14:35;;;;;;;12.90;4.78;;;9.00;99.90;;;;;;4181017;28;20206;-87
2023/11/17 08:16:36;;;;;;;12.23;5.03;;;9.00;99.90;;;;;;4181084;28;20182;-88
2023/11/17 08:18:38;;;;;;;11.35;5.57;;;9.00;99.90;;;;;;4197274;28;20647;-88
2023/11/17 08:20:41;;;;;;;13.27;4.95;;;9.10;99.90;;;;;;4181286;28;20202;-87
2023/11/17 08:22:42;;;;;;;17.10;5.03;;;9.10;99.90;;;;;;4181516;28;20171;-87
2023/11/17 08:24:42;;;;;;;15.68;7.20;;;9.10;99.90;;;;;;4184377;28;20167;-87
2023/11/17 08:26:43;;;;;;;10.30;3.92;;;9.10;99.90;;;;;;4200871;28;20201;-88
2023/11/17 08:28:44;;;;;;;17.88;5.85;;;9.20;99.90;;;;;;4184317;28;20200;-88
2023/11/17 08:30:45;;;;;;;13.60;5.28;;;9.10;99.90;;;;;;4184430;28;20179;-87
2023/11/17 08:32:47;;;;;;;14.07;6.05;;;9.20;99.90;;;;;;4184302;28;20164;-87
2023/11/17 08:34:47;;;;;;;13.75;5.55;;;9.10;99.90;;;;;;4184295;28;20167;-88
2023/11/17 08:36:49;;;;;;;13.05;5.45;;;9.00;99.90;;;;;;4184015;28;20733;-87
2023/11/17 08:38:51;;;;;;;11.60;5.18;;;8.90;99.90;;;;;;4200636;28;20213;-87
2023/11/17 08:40:55;;;;;;;11.32;5.55;;;8.90;99.90;;;;;;4200756;28;20186;-88
2023/11/17 08:42:55;;;;;;;13.82;5.03;;;8.80;99.90;;;;;;4184332;28;20198;-87
2023/11/17 08:44:56;;;;;;;13.93;5.15;;;8.90;99.90;;;;;;4200869;28;20167;-87
2023/11/17 08:46:59;;;;;;;14.23;5.03;;;8.90;99.90;;;;;;4200547;28;20202;-87
2023/11/17 08:49:01;;;;;;;11.00;4.68;;;9.00;99.90;;;;;;4184027;28;20222;-87
2023/11/17 08:51:02;;;;;;;12.18;5.25;;;9.20;99.90;;;;;;4183830;28;20201;-87
2023/11/17 08:53:03;;;;;;;15.55;5.40;;;9.30;99.90;;;;;;4183800;28;20187;-88
2023/11/17 08:55:05;;;;;;;12.05;4.95;;;9.30;99.90;;;;;;4200625;28;20515;-87
2023/11/17 08:57:08;;;;;;;18.45;6.95;;;9.40;99.90;;;;;;4184061;28;20171;-87
2023/11/17 08:59:09;;;;;;;16.05;5.72;;;9.20;99.90;;;;;;4201469;28;20278;-87
2023/11/17 09:01:10;;;;;;;12.10;4.57;;;9.30;99.90;;;;;;4183917;28;20175;-87
2023/11/17 09:03:11;;;;;;;12.55;6.35;;;9.40;99.90;;;;;;4183946;28;20574;-88
2023/11/17 09:05:13;;;;;;;10.93;4.63;;;9.50;99.90;;;;;;4184038;28;20179;-88
2023/11/17 09:07:16;;;;;;;13.98;4.07;;;9.80;99.90;;;;;;4183650;28;20211;-88
2023/11/17 09:09:17;;;;;;;15.05;6.45;;;9.70;99.90;;;;;;4183989;28;20208;-87
2023/11/17 09:11:18;;;;;;;12.23;4.43;;;9.70;99.90;;;;;;4183933;28;20174;-88
2023/11/17 09:13:20;;;;;;;14.10;6.68;;;9.60;99.90;;;;;;4183779;28;20180;-88
2023/11/17 09:15:25;;;;;;;18.60;7.95;;;9.70;99.90;;;;;;4183722;28;20163;-88
2023/11/17 09:17:27;;;;;;;12.20;6.25;;;9.50;99.90;;;;;;4200068;28;20659;-88
2023/11/17 09:19:28;;;;;;;26.50;12.32;;;9.30;99.90;;;;;;4200245;28;20245;-87
2023/11/17 09:21:31;;;;;;;9.27;4.05;;;9.10;99.90;;;;;;4183311;28;20582;-87
2023/11/17 09:23:35;;;;;;;9.75;4.15;;;9.20;99.90;;;;;;4183356;28;20172;-87
2023/11/17 09:25:36;;;;;;;11.75;4.47;;;9.20;99.90;;;;;;4216969;28;20170;-88
2023/11/17 09:27:36;;;;;;;12.88;5.07;;;9.40;99.90;;;;;;4200136;28;20210;-87
2023/11/17 09:29:37;;;;;;;15.43;3.75;;;9.50;99.90;;;;;;4183133;28;20191;-88
2023/11/17 09:31:38;;;;;;;8.77;3.55;;;9.70;99.90;;;;;;4183419;28;20306;-88
2023/11/17 09:33:38;;;;;;;12.10;5.47;;;9.70;99.90;;;;;;4199922;28;20189;-87
2023/11/17 09:35:39;;;;;;;13.70;4.13;;;9.70;99.90;;;;;;4199160;28;20162;-88
2023/11/17 09:37:49;;;;;;;10.02;3.67;;;9.80;99.90;;;;;;4183305;28;20179;-87
2023/11/17 09:39:50;;;;;;;10.77;4.38;;;9.80;99.90;;;;;;4183300;28;20181;-88
2023/11/17 09:41:54;;;;;;;15.38;4.38;;;9.90;99.90;;;;;;4183212;28;20186;-88
2023/11/17 09:43:57;;;;;;;19.73;4.93;;;10.00;99.90;;;;;;4183246;28;20168;-88
2023/11/17 09:45:59;;;;;;;9.30;3.05;;;10.10;99.90;;;;;;4183073;28;20225;-87
2023/11/17 09:48:05;;;;;;;11.07;4.03;;;10.30;99.90;;;;;;4199532;28;20211;-88
2023/11/17 09:50:09;;;;;;;14.85;4.32;;;10.30;99.90;;;;;;4199551;28;20205;-88
2023/11/17 09:52:11;;;;;;;9.10;4.43;;;10.30;99.90;;;;;;4182565;28;20627;-88
2023/11/17 09:54:13;;;;;;;14.88;4.10;;;10.50;99.90;;;;;;4182640;28;20290;-88
2023/11/17 09:56:15;;;;;;;11.80;3.90;;;10.80;99.90;;;;;;4182975;28;20163;-88
2023/11/17 09:58:17;;;;;;;7.88;3.55;;;10.90;99.90;;;;;;4199301;28;20190;-88
2023/11/17 10:00:20;;;;;;;15.57;5.68;;;10.60;99.90;;;;;;4199603;28;20323;-87
2023/11/17 10:02:22;;;;;;;18.60;7.18;;;10.60;99.90;;;;;;4182930;28;20266;-87
2023/11/17 10:04:24;;;;;;;8.80;3.22;;;10.50;99.90;;;;;;4182841;28;20206;-88
2023/11/17 10:06:28;;;;;;;8.52;4.18;;;10.60;99.90;;;;;;4182541;28;20590;-87
2023/11/17 10:08:29;;;;;;;12.40;5.15;;;10.50;99.90;;;;;;4199330;28;20195;-87
2023/11/17 10:10:36;;;;;;;8.30;3.90;;;10.60;99.90;;;;;;4182628;28;20178;-88
2023/11/17 10:12:39;;;;;;;11.63;4.20;;;10.70;99.90;;;;;;4182648;28;20171;-87
2023/11/17 10:14:42;;;;;;;7.55;2.70;;;11.10;99.90;;;;;;4199310;28;20198;-87
2023/11/17 10:16:43;;;;;;;11.07;4.05;;;11.10;99.90;;;;;;4199278;28;20555;-88
2023/11/17 10:18:45;;;;;;;9.82;3.63;;;11.00;99.90;;;;;;4182689;28;20203;-89
2023/11/17 10:20:47;;;;;;;5.47;2.10;;;11.00;99.90;;;;;;4182671;28;20221;-88
2023/11/17 10:22:49;;;;;;;4.78;2.42;;;11.00;99.90;;;;;;4182467;28;20183;-87
2023/11/17 10:24:50;;;;;;;7.20;2.97;;;11.00;99.90;;;;;;4182408;28;20159;-88
2023/11/17 10:26:51;;;;;;;5.97;3.13;;;11.20;99.90;;;;;;4182359;28;20211;-88
2023/11/17 10:28:54;;;;;;;3.83;2.35;;;11.50;99.90;;;;;;4198660;28;20194;-87
2023/11/17 10:31:00;;;;;;;5.60;2.63;;;11.60;99.90;;;;;;4182109;28;20218;-87
2023/11/17 10:33:20;;;;;;;10.48;3.47;;;11.90;99.90;;;;;;4182342;28;20172;-87
2023/11/17 10:35:24;;;;;;;6.70;2.50;;;12.10;99.90;;;;;;4182447;28;20666;-88
2023/11/17 10:37:33;;;;;;;4.90;2.50;;;12.40;99.90;;;;;;4182200;28;20651;-87